Coker, Alabama
Current Conditions -  °F | °C
As of 4:53 AM on Thursday 27 Nov 2014 (Local Time) from KTCL Reporting Station
Clear Clear  
Wind Chill: 34°   Ceiling: Unl
Heat Index: 40°   Visibility: 10mi
Dew Point: 30°   Wind: 9mph
Humidity: 68%   Direction: 310°NW
Pressure: 30.29"   Gusts: NA
Location:  33.25°N, 87.69°W
Report Text: KTCL 271053Z AUTO 31008KT 10SM CLR 04/M01 A3029 RMK AO2 SLP256 T00441011
Loading
Personal Weather Stations






























Interactive Weather Map New forecast layout! Learn more

10-Day Weather Forecast

Advertisements
Track Severe Weather on mobile